createdAt,value
2018-03-03T00:00:03.131Z,0.00
2018-03-03T00:01:03.126Z,0.00
2018-03-03T00:02:03.149Z,0.00
2018-03-03T00:03:03.126Z,0.00
2018-03-03T00:04:03.128Z,0.00
2018-03-03T00:05:03.130Z,0.00
2018-03-03T00:06:03.128Z,0.00
2018-03-03T00:07:03.121Z,0.00
2018-03-03T00:08:03.122Z,0.00
2018-03-03T00:09:03.124Z,0.00
2018-03-03T00:10:03.131Z,0.00
2018-03-03T00:11:03.114Z,0.00
2018-03-03T00:12:03.122Z,0.00
2018-03-03T00:13:03.112Z,0.00
2018-03-03T00:14:03.116Z,0.00
2018-03-03T00:15:03.110Z,0.00
2018-03-03T00:16:03.117Z,0.00
2018-03-03T00:17:03.113Z,0.00
2018-03-03T00:18:03.271Z,0.00
2018-03-03T00:19:03.107Z,0.00
2018-03-03T00:20:03.117Z,0.00
2018-03-03T00:21:03.110Z,0.00
2018-03-03T00:22:03.109Z,0.00
2018-03-03T00:23:03.100Z,0.00
2018-03-03T00:24:03.117Z,0.00
2018-03-03T00:25:03.115Z,0.00
2018-03-03T00:26:03.117Z,0.00
2018-03-03T00:27:03.096Z,0.00
2018-03-03T00:28:03.103Z,0.00
2018-03-03T00:29:03.093Z,0.00
2018-03-03T00:30:03.099Z,0.00
2018-03-03T00:31:03.114Z,0.00
2018-03-03T00:32:03.097Z,0.00
2018-03-03T00:33:03.089Z,0.00
2018-03-03T00:34:03.094Z,0.00
2018-03-03T00:35:03.089Z,0.00
2018-03-03T00:36:03.093Z,0.00
2018-03-03T00:37:03.086Z,0.00
2018-03-03T00:38:04.090Z,0.00
2018-03-03T00:39:03.094Z,0.00
2018-03-03T00:40:03.080Z,0.00
2018-03-03T00:41:03.098Z,0.00
2018-03-03T00:42:03.086Z,0.00
2018-03-03T00:43:03.088Z,0.00
2018-03-03T00:44:03.086Z,0.00
2018-03-03T00:45:03.085Z,0.00
2018-03-03T00:46:03.088Z,0.00
2018-03-03T00:47:03.075Z,0.00
2018-03-03T00:48:03.088Z,0.00
2018-03-03T00:49:03.081Z,0.00
2018-03-03T00:50:03.102Z,0.00
2018-03-03T00:51:03.072Z,0.00
2018-03-03T00:52:03.078Z,0.00
2018-03-03T00:53:03.064Z,0.00
2018-03-03T00:54:03.065Z,0.00
2018-03-03T00:55:03.063Z,0.00
2018-03-03T00:56:03.074Z,0.00
2018-03-03T00:57:03.062Z,0.00
2018-03-03T00:58:03.064Z,0.00
2018-03-03T00:59:03.054Z,0.00
2018-03-03T01:00:03.072Z,0.00
2018-03-03T01:01:03.057Z,0.00
2018-03-03T01:02:03.074Z,0.00
2018-03-03T01:03:03.051Z,0.00
2018-03-03T01:04:03.082Z,0.00
2018-03-03T01:05:03.059Z,0.00
2018-03-03T01:06:03.056Z,0.00
2018-03-03T01:07:03.043Z,0.00
2018-03-03T01:08:03.050Z,0.00
2018-03-03T01:09:03.053Z,0.00
2018-03-03T01:10:03.076Z,0.00
2018-03-03T01:11:03.054Z,0.00
2018-03-03T01:12:03.087Z,0.00
2018-03-03T01:13:03.042Z,0.00
2018-03-03T01:14:03.034Z,0.00
2018-03-03T01:15:03.082Z,0.00
2018-03-03T01:16:03.036Z,0.00
2018-03-03T01:17:03.042Z,0.00
2018-03-03T01:18:03.063Z,0.00
2018-03-03T01:19:03.040Z,0.00
2018-03-03T01:20:03.035Z,0.00
2018-03-03T01:21:03.026Z,0.00
2018-03-03T01:22:03.069Z,0.00
2018-03-03T01:23:03.040Z,0.00
2018-03-03T01:24:03.034Z,0.00
2018-03-03T01:25:03.039Z,0.00
2018-03-03T01:26:03.122Z,0.00
2018-03-03T01:27:03.036Z,0.00
2018-03-03T01:28:03.025Z,0.00
2018-03-03T01:29:03.030Z,0.00
2018-03-03T01:30:03.070Z,0.00
2018-03-03T01:31:03.020Z,0.00
2018-03-03T01:32:03.029Z,0.00
2018-03-03T01:33:03.010Z,0.00
2018-03-03T01:34:03.020Z,0.00
2018-03-03T01:35:03.012Z,0.00
2018-03-03T01:36:03.015Z,0.00
2018-03-03T01:37:03.024Z,0.00
2018-03-03T01:38:03.014Z,0.00
2018-03-03T01:39:03.006Z,0.00
2018-03-03T01:40:03.013Z,0.00
2018-03-03T01:41:03.009Z,0.00
2018-03-03T01:42:03.014Z,0.00
2018-03-03T01:43:03.000Z,0.00
2018-03-03T01:44:04.010Z,0.00
2018-03-03T01:45:02.999Z,0.00
2018-03-03T01:46:03.001Z,0.00
2018-03-03T01:47:02.996Z,0.00
2018-03-03T01:48:02.994Z,0.00
2018-03-03T01:49:02.986Z,0.00
2018-03-03T01:50:02.993Z,0.00
2018-03-03T01:51:02.997Z,0.00
2018-03-03T01:52:02.998Z,0.00
2018-03-03T01:53:02.986Z,0.00
2018-03-03T01:54:03.003Z,0.00
2018-03-03T01:55:02.986Z,0.00
2018-03-03T01:56:02.987Z,0.00
2018-03-03T01:57:02.980Z,0.00
2018-03-03T01:58:03.985Z,0.00
2018-03-03T01:59:02.974Z,0.00
2018-03-03T02:00:02.977Z,0.00
2018-03-03T02:01:02.978Z,0.00
2018-03-03T02:02:02.982Z,0.00
2018-03-03T02:03:02.992Z,0.00
2018-03-03T02:04:02.986Z,0.00
2018-03-03T02:05:02.976Z,0.00
2018-03-03T02:06:02.973Z,0.00
2018-03-03T02:07:02.972Z,0.00
2018-03-03T02:08:02.969Z,0.00
2018-03-03T02:09:02.973Z,0.00
2018-03-03T02:10:02.968Z,0.00
2018-03-03T02:11:02.962Z,0.00
2018-03-03T02:12:02.963Z,0.00
2018-03-03T02:13:02.959Z,0.00
2018-03-03T02:14:02.958Z,0.00
2018-03-03T02:15:02.954Z,0.00
2018-03-03T02:16:02.995Z,0.00
2018-03-03T02:17:02.953Z,0.00
2018-03-03T02:18:02.953Z,0.00
2018-03-03T02:19:02.976Z,0.00
2018-03-03T02:20:02.958Z,0.00
2018-03-03T02:21:02.950Z,0.00
2018-03-03T02:22:02.951Z,0.00
2018-03-03T02:23:02.950Z,0.00
2018-03-03T02:24:02.950Z,0.00
2018-03-03T02:25:02.953Z,0.00
2018-03-03T02:26:02.946Z,0.00
2018-03-03T02:27:02.945Z,0.00
2018-03-03T02:28:02.956Z,0.00
2018-03-03T02:29:02.934Z,0.00
2018-03-03T02:30:02.937Z,0.00
2018-03-03T02:31:02.934Z,0.00
2018-03-03T02:32:02.933Z,0.00
2018-03-03T02:33:02.929Z,0.00
2018-03-03T02:34:02.934Z,0.00
2018-03-03T02:35:02.925Z,0.00
2018-03-03T02:36:02.928Z,0.00
2018-03-03T02:37:02.919Z,0.00
2018-03-03T02:38:02.921Z,0.00
2018-03-03T02:39:02.933Z,0.00
2018-03-03T02:40:02.925Z,0.00
2018-03-03T02:41:02.917Z,0.00
2018-03-03T02:42:02.921Z,0.00
2018-03-03T02:43:02.921Z,0.00
2018-03-03T02:44:02.913Z,0.00
2018-03-03T02:45:02.919Z,0.00
2018-03-03T02:46:02.913Z,0.00
2018-03-03T02:47:02.906Z,0.00
2018-03-03T02:48:02.910Z,0.00
2018-03-03T02:49:02.906Z,0.00
2018-03-03T02:50:02.912Z,0.00
2018-03-03T02:51:02.900Z,0.00
2018-03-03T02:52:02.907Z,0.00
2018-03-03T02:53:02.896Z,0.00
2018-03-03T02:54:02.904Z,0.00
2018-03-03T02:55:02.900Z,0.00
2018-03-03T02:56:02.907Z,0.00
2018-03-03T02:57:02.901Z,0.00
2018-03-03T02:58:02.897Z,0.00
2018-03-03T02:59:02.889Z,0.00
2018-03-03T03:00:02.894Z,0.00
2018-03-03T03:01:02.887Z,0.00
2018-03-03T03:02:02.897Z,0.00
2018-03-03T03:03:02.887Z,0.00
2018-03-03T03:04:02.917Z,0.00
2018-03-03T03:05:02.885Z,0.00
2018-03-03T03:06:02.887Z,0.00
2018-03-03T03:07:02.880Z,0.00
2018-03-03T03:08:02.883Z,0.00
2018-03-03T03:09:02.870Z,0.00
2018-03-03T03:10:02.923Z,0.00
2018-03-03T03:11:02.880Z,0.00
2018-03-03T03:12:02.876Z,0.00
2018-03-03T03:13:02.864Z,0.00
2018-03-03T03:14:02.870Z,0.00
2018-03-03T03:15:02.874Z,0.00
2018-03-03T03:16:02.884Z,0.00
2018-03-03T03:17:02.871Z,0.00
2018-03-03T03:18:02.865Z,0.00
2018-03-03T03:19:02.859Z,0.00
2018-03-03T03:20:02.865Z,0.00
2018-03-03T03:21:02.857Z,0.00
2018-03-03T03:22:03.865Z,0.00
2018-03-03T03:23:02.850Z,0.00
2018-03-03T03:24:02.857Z,0.00
2018-03-03T03:25:02.852Z,0.00
2018-03-03T03:26:02.855Z,0.00
2018-03-03T03:27:02.847Z,0.00
2018-03-03T03:28:02.862Z,0.00
2018-03-03T03:29:02.843Z,0.00
2018-03-03T03:30:02.860Z,0.00
2018-03-03T03:31:02.836Z,0.00
2018-03-03T03:32:02.846Z,0.00
2018-03-03T03:33:02.848Z,0.00
2018-03-03T03:34:02.859Z,0.00
2018-03-03T03:35:02.834Z,0.00
2018-03-03T03:36:02.838Z,0.00
2018-03-03T03:37:02.833Z,0.00
2018-03-03T03:38:02.831Z,0.00
2018-03-03T03:39:02.829Z,0.00
2018-03-03T03:40:02.843Z,0.00
2018-03-03T03:41:02.824Z,0.00
2018-03-03T03:42:02.824Z,0.00
2018-03-03T03:43:02.833Z,0.00
2018-03-03T03:44:02.831Z,0.00
2018-03-03T03:45:02.815Z,0.00
2018-03-03T03:46:02.820Z,0.00
2018-03-03T03:47:02.810Z,0.00
2018-03-03T03:48:02.818Z,0.00
2018-03-03T03:49:02.812Z,0.00
2018-03-03T03:50:02.814Z,0.00
2018-03-03T03:51:02.812Z,0.00
2018-03-03T03:52:02.810Z,0.00
2018-03-03T03:53:02.812Z,0.00
2018-03-03T03:54:02.809Z,0.00
2018-03-03T03:55:02.803Z,0.00
2018-03-03T03:56:02.809Z,0.00
2018-03-03T03:57:02.794Z,0.00
2018-03-03T03:58:02.800Z,0.00
2018-03-03T03:59:02.800Z,0.00
2018-03-03T04:00:02.793Z,0.00
2018-03-03T04:01:02.791Z,0.00
2018-03-03T04:02:02.796Z,0.00
2018-03-03T04:03:02.790Z,0.00
2018-03-03T04:04:02.795Z,0.00
2018-03-03T04:05:02.791Z,0.00
2018-03-03T04:06:03.793Z,0.00
2018-03-03T04:07:02.782Z,0.00
2018-03-03T04:08:02.795Z,0.00
2018-03-03T04:09:02.778Z,0.00
2018-03-03T04:10:02.782Z,0.00
2018-03-03T04:11:02.779Z,0.00
2018-03-03T04:12:02.772Z,0.00
2018-03-03T04:13:02.779Z,0.00
2018-03-03T04:14:02.785Z,0.00
2018-03-03T04:15:02.764Z,0.00
2018-03-03T04:16:02.774Z,0.00
2018-03-03T04:17:02.765Z,0.00
2018-03-03T04:18:02.767Z,0.00
2018-03-03T04:19:02.764Z,0.00
2018-03-03T04:20:02.806Z,0.00
2018-03-03T04:21:02.754Z,0.00
2018-03-03T04:22:02.763Z,0.00
2018-03-03T04:23:02.760Z,0.00
2018-03-03T04:24:02.756Z,0.00
2018-03-03T04:25:02.758Z,0.00
2018-03-03T04:26:02.753Z,0.00
2018-03-03T04:27:02.755Z,0.00
2018-03-03T04:28:02.762Z,0.00
2018-03-03T04:29:02.743Z,0.00
2018-03-03T04:30:02.747Z,0.00
2018-03-03T04:31:02.746Z,0.00
2018-03-03T04:32:03.748Z,0.00
2018-03-03T04:33:02.734Z,0.00
2018-03-03T04:34:02.739Z,0.00
2018-03-03T04:35:02.736Z,0.00
2018-03-03T04:36:02.743Z,0.00
2018-03-03T04:37:02.727Z,0.00
2018-03-03T04:38:02.732Z,0.00
2018-03-03T04:39:02.730Z,0.00
2018-03-03T04:40:02.744Z,0.00
2018-03-03T04:41:02.730Z,0.00
2018-03-03T04:42:02.760Z,0.00
2018-03-03T04:43:02.724Z,0.00
2018-03-03T04:44:02.731Z,0.00
2018-03-03T04:45:02.729Z,0.00
2018-03-03T04:46:02.716Z,0.00
2018-03-03T04:47:02.719Z,0.00
2018-03-03T04:48:02.721Z,0.00
2018-03-03T04:49:02.746Z,0.00
2018-03-03T04:50:02.733Z,0.00
2018-03-03T04:51:02.712Z,0.00
2018-03-03T04:52:02.732Z,0.00
2018-03-03T04:53:02.708Z,0.00
2018-03-03T04:54:02.709Z,0.00
2018-03-03T04:55:02.703Z,0.00
2018-03-03T04:56:02.706Z,0.00
2018-03-03T04:57:02.702Z,0.00
2018-03-03T04:58:02.701Z,0.00
2018-03-03T04:59:02.688Z,0.00
2018-03-03T05:00:02.709Z,0.00
2018-03-03T05:01:02.710Z,0.00
2018-03-03T05:02:02.695Z,0.00
2018-03-03T05:03:02.688Z,0.00
2018-03-03T05:04:02.693Z,0.00
2018-03-03T05:05:02.685Z,0.00
2018-03-03T05:06:02.681Z,0.00
2018-03-03T05:07:02.691Z,0.00
2018-03-03T05:08:02.677Z,0.00
2018-03-03T05:09:02.700Z,0.00
2018-03-03T05:10:02.687Z,0.00
2018-03-03T05:11:02.676Z,0.00
2018-03-03T05:12:02.673Z,0.00
2018-03-03T05:13:02.672Z,0.00
2018-03-03T05:14:02.667Z,0.00
2018-03-03T05:15:02.677Z,0.00
2018-03-03T05:16:02.686Z,0.00
2018-03-03T05:17:02.670Z,0.00
2018-03-03T05:18:02.685Z,0.00
2018-03-03T05:19:02.657Z,0.00
2018-03-03T05:20:02.655Z,0.00
2018-03-03T05:21:02.659Z,0.00
2018-03-03T05:22:02.665Z,0.00
2018-03-03T05:23:02.650Z,0.00
2018-03-03T05:24:02.655Z,0.00
2018-03-03T05:25:02.652Z,0.00
2018-03-03T05:26:02.657Z,0.00
2018-03-03T05:27:02.654Z,0.00
2018-03-03T05:28:02.648Z,0.00
2018-03-03T05:29:02.651Z,0.00
2018-03-03T05:30:02.644Z,0.00
2018-03-03T05:31:02.634Z,0.00
2018-03-03T05:32:02.635Z,0.00
2018-03-03T05:33:02.638Z,0.00
2018-03-03T05:34:02.635Z,0.00
2018-03-03T05:35:02.660Z,0.00
2018-03-03T05:36:02.630Z,0.00
2018-03-03T05:37:02.630Z,0.00
2018-03-03T05:38:02.632Z,0.00
2018-03-03T05:39:02.625Z,0.00
2018-03-03T05:40:02.626Z,0.00
2018-03-03T05:41:03.157Z,0.00
2018-03-03T05:42:02.614Z,0.00
2018-03-03T05:43:02.633Z,0.00
2018-03-03T05:44:02.618Z,0.00
2018-03-03T05:45:02.616Z,0.00
2018-03-03T05:46:02.608Z,0.00
2018-03-03T05:47:02.622Z,0.00
2018-03-03T05:48:02.612Z,4.00
2018-03-03T05:49:02.614Z,0.00
2018-03-03T05:50:02.609Z,0.00
2018-03-03T05:51:02.604Z,4.00
2018-03-03T05:52:02.600Z,0.00
2018-03-03T05:53:02.607Z,4.00
2018-03-03T05:54:02.602Z,4.00
2018-03-03T05:55:02.600Z,4.00
2018-03-03T05:56:02.600Z,4.00
2018-03-03T05:57:02.601Z,4.00
2018-03-03T05:58:02.598Z,8.00
2018-03-03T05:59:02.600Z,4.00
2018-03-03T06:00:02.586Z,8.00
2018-03-03T06:01:02.590Z,8.00
2018-03-03T06:02:02.600Z,12.00
2018-03-03T06:03:02.597Z,12.00
2018-03-03T06:04:02.597Z,12.00
2018-03-03T06:05:02.583Z,12.00
2018-03-03T06:06:02.619Z,16.00
2018-03-03T06:07:02.578Z,16.00
2018-03-03T06:08:02.568Z,20.00
2018-03-03T06:09:02.572Z,20.00
2018-03-03T06:10:02.583Z,20.00
2018-03-03T06:11:02.575Z,24.00
2018-03-03T06:12:02.561Z,32.00
2018-03-03T06:13:02.566Z,32.00
2018-03-03T06:14:02.558Z,36.00
2018-03-03T06:15:02.568Z,40.00
2018-03-03T06:16:02.564Z,44.00
2018-03-03T06:17:02.558Z,48.00
2018-03-03T06:18:02.556Z,52.00
2018-03-03T06:19:02.557Z,60.00
2018-03-03T06:20:02.554Z,68.00
2018-03-03T06:21:02.594Z,68.00
2018-03-03T06:22:02.548Z,76.00
2018-03-03T06:23:02.547Z,84.00
2018-03-03T06:24:02.541Z,88.00
2018-03-03T06:25:03.558Z,96.00
2018-03-03T06:26:02.548Z,104.00
2018-03-03T06:27:02.539Z,112.00
2018-03-03T06:28:02.536Z,120.00
2018-03-03T06:29:02.538Z,128.00
2018-03-03T06:30:02.529Z,136.00
2018-03-03T06:31:02.534Z,148.00
2018-03-03T06:32:02.533Z,156.00
2018-03-03T06:33:02.529Z,168.00
2018-03-03T06:34:02.521Z,180.00
2018-03-03T06:35:02.520Z,188.00
2018-03-03T06:36:02.533Z,200.00
2018-03-03T06:37:02.532Z,208.00
2018-03-03T06:38:02.511Z,216.00
2018-03-03T06:39:02.521Z,228.00
2018-03-03T06:40:02.511Z,240.00
2018-03-03T06:41:02.509Z,248.00
2018-03-03T06:42:02.513Z,260.00
2018-03-03T06:43:02.508Z,272.00
2018-03-03T06:44:02.501Z,284.00
2018-03-03T06:45:02.511Z,300.00
2018-03-03T06:46:02.508Z,312.00
2018-03-03T06:47:02.503Z,324.00
2018-03-03T06:48:02.499Z,328.00
2018-03-03T06:49:02.499Z,332.00
2018-03-03T06:50:02.535Z,336.00
2018-03-03T06:51:02.500Z,344.00
2018-03-03T06:52:02.492Z,356.00
2018-03-03T06:53:02.489Z,368.00
2018-03-03T06:54:02.485Z,384.00
2018-03-03T06:55:02.491Z,400.00
2018-03-03T06:56:02.478Z,424.00
2018-03-03T06:57:02.494Z,436.00
2018-03-03T06:58:02.479Z,452.00
2018-03-03T06:59:02.484Z,464.00
2018-03-03T07:00:02.478Z,480.00
2018-03-03T07:01:02.475Z,496.00
2018-03-03T07:02:02.468Z,512.00
2018-03-03T07:03:02.471Z,528.00
2018-03-03T07:04:02.461Z,544.00
2018-03-03T07:05:02.479Z,568.00
2018-03-03T07:06:02.468Z,592.00
2018-03-03T07:07:02.466Z,612.00
2018-03-03T07:08:02.455Z,636.00
2018-03-03T07:09:02.464Z,664.00
2018-03-03T07:10:02.461Z,696.00
2018-03-03T07:11:02.451Z,728.00
2018-03-03T07:12:02.453Z,760.00
2018-03-03T07:13:02.453Z,796.00
2018-03-03T07:14:02.446Z,836.00
2018-03-03T07:15:02.452Z,876.00
2018-03-03T07:16:02.443Z,912.00
2018-03-03T07:17:02.442Z,936.00
2018-03-03T07:18:02.451Z,956.00
2018-03-03T07:19:02.438Z,964.00
2018-03-03T07:20:02.437Z,968.00
2018-03-03T07:21:02.435Z,968.00
2018-03-03T07:22:02.442Z,964.00
2018-03-03T07:23:02.439Z,964.00
2018-03-03T07:24:02.431Z,956.00
2018-03-03T07:25:02.436Z,944.00
2018-03-03T07:26:02.422Z,948.00
2018-03-03T07:27:02.423Z,972.00
2018-03-03T07:28:02.417Z,976.00
2018-03-03T07:29:02.427Z,976.00
2018-03-03T07:30:02.422Z,976.00
2018-03-03T07:31:02.422Z,984.00
2018-03-03T07:32:02.414Z,1004.00
2018-03-03T07:33:02.416Z,1024.00
2018-03-03T07:34:02.410Z,1036.00
2018-03-03T07:35:02.413Z,1048.00
2018-03-03T07:36:02.438Z,1044.00
2018-03-03T07:37:02.413Z,1044.00
2018-03-03T07:38:02.396Z,1036.00
2018-03-03T07:39:02.416Z,1044.00
2018-03-03T07:40:02.398Z,1060.00
2018-03-03T07:41:02.402Z,1088.00
2018-03-03T07:42:02.393Z,1100.00
2018-03-03T07:43:02.395Z,1112.00
2018-03-03T07:44:02.401Z,1108.00
2018-03-03T07:45:02.394Z,1084.00
2018-03-03T07:46:02.384Z,1060.00
2018-03-03T07:47:03.391Z,1040.00
2018-03-03T07:48:02.382Z,1024.00
2018-03-03T07:49:02.395Z,992.00
2018-03-03T07:50:02.378Z,984.00
2018-03-03T07:51:02.428Z,996.00
2018-03-03T07:52:02.375Z,1020.00
2018-03-03T07:53:02.376Z,1056.00
2018-03-03T07:54:02.397Z,1084.00
2018-03-03T07:55:02.402Z,1100.00
2018-03-03T07:56:02.389Z,1112.00
2018-03-03T07:57:02.367Z,1112.00
2018-03-03T07:58:02.386Z,1096.00
2018-03-03T07:59:02.374Z,1072.00
2018-03-03T08:00:02.381Z,1056.00
2018-03-03T08:01:02.390Z,1044.00
2018-03-03T08:02:02.372Z,1044.00
2018-03-03T08:03:02.354Z,1068.00
2018-03-03T08:04:02.365Z,1100.00
2018-03-03T08:05:02.394Z,1128.00
2018-03-03T08:06:02.350Z,1164.00
2018-03-03T08:07:03.440Z,1204.00
2018-03-03T08:08:02.447Z,1240.00
2018-03-03T08:09:02.397Z,1264.00
2018-03-03T08:10:02.352Z,1284.00
2018-03-03T08:11:02.340Z,1308.00
2018-03-03T08:12:02.340Z,1336.00
2018-03-03T08:13:02.346Z,1372.00
2018-03-03T08:14:02.339Z,1396.00
2018-03-03T08:15:02.335Z,1384.00
2018-03-03T08:16:02.326Z,1364.00
2018-03-03T08:17:02.336Z,1380.00
2018-03-03T08:18:02.323Z,1408.00
2018-03-03T08:19:02.336Z,1416.00
2018-03-03T08:20:02.315Z,1420.00
2018-03-03T08:21:02.319Z,1400.00
2018-03-03T08:22:02.324Z,1356.00
2018-03-03T08:23:02.328Z,1300.00
2018-03-03T08:24:02.342Z,1252.00
2018-03-03T08:25:02.324Z,1212.00
2018-03-03T08:26:02.310Z,1172.00
2018-03-03T08:27:02.308Z,1144.00
2018-03-03T08:28:02.370Z,1132.00
2018-03-03T08:29:02.300Z,1156.00
2018-03-03T08:30:02.345Z,1184.00
2018-03-03T08:31:02.301Z,1204.00
2018-03-03T08:32:02.308Z,1260.00
2018-03-03T08:33:02.297Z,1352.00
2018-03-03T08:34:02.298Z,1456.00
2018-03-03T08:35:02.295Z,1580.00
2018-03-03T08:36:02.294Z,1728.00
2018-03-03T08:37:02.297Z,1880.00
2018-03-03T08:38:02.304Z,2008.00
2018-03-03T08:39:02.286Z,2072.00
2018-03-03T08:40:02.286Z,2088.00
2018-03-03T08:41:02.287Z,2080.00
2018-03-03T08:42:02.286Z,2088.00
2018-03-03T08:43:03.291Z,2104.00
2018-03-03T08:44:02.279Z,2112.00
2018-03-03T08:45:02.294Z,2120.00
2018-03-03T08:46:02.273Z,2124.00
2018-03-03T08:47:02.274Z,2116.00
2018-03-03T08:48:02.283Z,2088.00
2018-03-03T08:49:04.288Z,2056.00
2018-03-03T08:50:02.267Z,2024.00
2018-03-03T08:51:04.315Z,1992.00
2018-03-03T08:52:02.301Z,1964.00
2018-03-03T08:53:02.267Z,1940.00
2018-03-03T08:54:02.262Z,1928.00
2018-03-03T08:55:02.365Z,1908.00
2018-03-03T08:56:02.255Z,1896.00
2018-03-03T08:57:02.273Z,1880.00
2018-03-03T08:58:02.303Z,1876.00
2018-03-03T08:59:02.281Z,1888.00
2018-03-03T09:00:02.255Z,1916.00
2018-03-03T09:01:02.258Z,1936.00
2018-03-03T09:02:02.303Z,1952.00
2018-03-03T09:03:02.327Z,1956.00
2018-03-03T09:04:02.259Z,1948.00
2018-03-03T09:05:02.351Z,1944.00
2018-03-03T09:06:02.288Z,1936.00
2018-03-03T09:07:02.256Z,1932.00
2018-03-03T09:08:02.351Z,1928.00
2018-03-03T09:09:02.233Z,1932.00
2018-03-03T09:10:02.239Z,1936.00
2018-03-03T09:11:02.249Z,1944.00
2018-03-03T09:12:02.274Z,1936.00
2018-03-03T09:13:02.231Z,1928.00
2018-03-03T09:14:02.236Z,1916.00
2018-03-03T09:15:02.225Z,1892.00
2018-03-03T09:16:02.289Z,1888.00
2018-03-03T09:17:02.282Z,1896.00
2018-03-03T09:18:02.317Z,1920.00
2018-03-03T09:19:02.520Z,1956.00
2018-03-03T09:20:02.218Z,1984.00
2018-03-03T09:21:02.224Z,2000.00
2018-03-03T09:22:02.210Z,2000.00
2018-03-03T09:23:02.213Z,1992.00
2018-03-03T09:24:02.215Z,1988.00
2018-03-03T09:25:02.211Z,1996.00
2018-03-03T09:26:02.212Z,2000.00
2018-03-03T09:27:02.206Z,2004.00
2018-03-03T09:28:02.204Z,1984.00
2018-03-03T09:29:02.204Z,1960.00
2018-03-03T09:30:02.317Z,1928.00
2018-03-03T09:31:02.192Z,1908.00
2018-03-03T09:32:02.332Z,1900.00
2018-03-03T09:33:02.232Z,1908.00
2018-03-03T09:34:02.301Z,1928.00
2018-03-03T09:35:02.194Z,1968.00
2018-03-03T09:36:02.245Z,1992.00
2018-03-03T09:37:02.210Z,1992.00
2018-03-03T09:38:03.253Z,1992.00
2018-03-03T09:39:02.231Z,2012.00
2018-03-03T09:40:02.232Z,2004.00
2018-03-03T09:41:02.197Z,1984.00
2018-03-03T09:42:02.262Z,1976.00
2018-03-03T09:43:02.178Z,1984.00
2018-03-03T09:44:02.264Z,1976.00
2018-03-03T09:45:02.188Z,1976.00
2018-03-03T09:46:02.302Z,2004.00
2018-03-03T09:47:02.175Z,2048.00
2018-03-03T09:48:03.230Z,2100.00
2018-03-03T09:49:02.158Z,2132.00
2018-03-03T09:50:02.201Z,2160.00
2018-03-03T09:51:02.165Z,2188.00
2018-03-03T09:52:02.214Z,2200.00
2018-03-03T09:53:02.168Z,2208.00
2018-03-03T09:54:02.224Z,2216.00
2018-03-03T09:55:02.156Z,2220.00
2018-03-03T09:56:02.244Z,2228.00
2018-03-03T09:57:02.156Z,2224.00
2018-03-03T09:58:02.249Z,2208.00
2018-03-03T09:59:02.158Z,2212.00
2018-03-03T10:00:02.180Z,2240.00
2018-03-03T10:01:02.146Z,2272.00
2018-03-03T10:02:06.292Z,2304.00
2018-03-03T10:03:02.153Z,2340.00
2018-03-03T10:04:02.187Z,2368.00
2018-03-03T10:05:02.161Z,2416.00
2018-03-03T10:06:02.209Z,2464.00
2018-03-03T10:07:02.150Z,2512.00
2018-03-03T10:08:02.216Z,2544.00
2018-03-03T10:09:02.130Z,2552.00
2018-03-03T10:10:02.226Z,2548.00
2018-03-03T10:11:02.131Z,2552.00
2018-03-03T10:12:02.260Z,2552.00
2018-03-03T10:13:02.155Z,2552.00
2018-03-03T10:14:02.171Z,2540.00
2018-03-03T10:15:02.128Z,2536.00
2018-03-03T10:16:02.158Z,2524.00
2018-03-03T10:17:02.139Z,2516.00
2018-03-03T10:18:02.172Z,2516.00
2018-03-03T10:19:02.150Z,2520.00
2018-03-03T10:20:02.188Z,2524.00
2018-03-03T10:21:02.176Z,2512.00
2018-03-03T10:22:02.218Z,2504.00
2018-03-03T10:23:02.151Z,2480.00
2018-03-03T10:24:02.209Z,2468.00
2018-03-03T10:25:02.126Z,2468.00
2018-03-03T10:26:02.127Z,2452.00
2018-03-03T10:27:02.113Z,2432.00
2018-03-03T10:28:02.144Z,2420.00
2018-03-03T10:29:02.151Z,2384.00
2018-03-03T10:30:02.149Z,2344.00
2018-03-03T10:31:02.112Z,2316.00
2018-03-03T10:32:02.159Z,2312.00
2018-03-03T10:33:02.146Z,2336.00
2018-03-03T10:34:02.253Z,2352.00
2018-03-03T10:35:02.095Z,2316.00
2018-03-03T10:36:02.190Z,2212.00
2018-03-03T10:37:02.088Z,2072.00
2018-03-03T10:38:02.201Z,1952.00
2018-03-03T10:39:02.083Z,1904.00
2018-03-03T10:40:02.115Z,1900.00
2018-03-03T10:41:02.089Z,1900.00
2018-03-03T10:42:02.143Z,1880.00
2018-03-03T10:43:02.082Z,1836.00
2018-03-03T10:44:02.138Z,1792.00
2018-03-03T10:45:02.143Z,1764.00
2018-03-03T10:46:02.071Z,1744.00
2018-03-03T10:47:02.073Z,1728.00
2018-03-03T10:48:02.195Z,1708.00
2018-03-03T10:49:02.067Z,1680.00
2018-03-03T10:50:02.174Z,1660.00
2018-03-03T10:51:02.081Z,1624.00
2018-03-03T10:52:02.092Z,1572.00
2018-03-03T10:53:02.062Z,1512.00
2018-03-03T10:54:02.098Z,1468.00
2018-03-03T10:55:02.082Z,1416.00
2018-03-03T10:56:02.062Z,1368.00
2018-03-03T10:57:02.122Z,1336.00
2018-03-03T10:58:02.054Z,1324.00
2018-03-03T10:59:02.058Z,1340.00
2018-03-03T11:00:02.136Z,1380.00
2018-03-03T11:01:02.051Z,1412.00
2018-03-03T11:02:02.147Z,1416.00
2018-03-03T11:03:02.060Z,1376.00
2018-03-03T11:04:02.052Z,1320.00
2018-03-03T11:05:02.070Z,1276.00
2018-03-03T11:06:02.049Z,1264.00
2018-03-03T11:07:02.070Z,1264.00
2018-03-03T11:08:02.091Z,1256.00
2018-03-03T11:09:02.047Z,1240.00
2018-03-03T11:10:02.111Z,1212.00
2018-03-03T11:11:02.173Z,1184.00
2018-03-03T11:12:02.118Z,1164.00
2018-03-03T11:13:02.022Z,1152.00
2018-03-03T11:14:02.125Z,1144.00
2018-03-03T11:15:02.042Z,1144.00
2018-03-03T11:16:02.034Z,1148.00
2018-03-03T11:17:02.096Z,1148.00
2018-03-03T11:18:02.026Z,1148.00
2018-03-03T11:19:02.055Z,1148.00
2018-03-03T11:20:02.018Z,1152.00
2018-03-03T11:21:02.086Z,1172.00
2018-03-03T11:22:02.021Z,1204.00
2018-03-03T11:23:02.082Z,1260.00
2018-03-03T11:24:02.010Z,1324.00
2018-03-03T11:25:02.098Z,1380.00
2018-03-03T11:26:02.013Z,1412.00
2018-03-03T11:27:02.107Z,1432.00
2018-03-03T11:28:02.022Z,1456.00
2018-03-03T11:29:02.015Z,1464.00
2018-03-03T11:30:02.004Z,1460.00
2018-03-03T11:31:02.033Z,1444.00
2018-03-03T11:32:01.996Z,1444.00
2018-03-03T11:33:02.051Z,1448.00
2018-03-03T11:34:02.018Z,1464.00
2018-03-03T11:35:02.056Z,1476.00
2018-03-03T11:36:01.990Z,1484.00
2018-03-03T11:37:02.077Z,1476.00
2018-03-03T11:38:01.991Z,1460.00
2018-03-03T11:39:02.002Z,1452.00
2018-03-03T11:40:02.088Z,1460.00
2018-03-03T11:41:01.990Z,1484.00
2018-03-03T11:42:01.992Z,1488.00
2018-03-03T11:43:02.004Z,1476.00
2018-03-03T11:44:01.977Z,1464.00
2018-03-03T11:45:02.018Z,1472.00
2018-03-03T11:46:01.975Z,1468.00
2018-03-03T11:47:02.029Z,1428.00
2018-03-03T11:48:01.972Z,1372.00
2018-03-03T11:49:02.043Z,1340.00
2018-03-03T11:50:01.974Z,1352.00
2018-03-03T11:51:01.970Z,1400.00
2018-03-03T11:52:02.064Z,1472.00
2018-03-03T11:53:01.976Z,1540.00
2018-03-03T11:54:01.970Z,1592.00
2018-03-03T11:55:01.984Z,1628.00
2018-03-03T11:56:01.968Z,1664.00
2018-03-03T11:57:01.993Z,1696.00
2018-03-03T11:58:01.951Z,1716.00
2018-03-03T11:59:01.964Z,1724.00
2018-03-03T12:00:02.027Z,1732.00
2018-03-03T12:01:01.949Z,1740.00
2018-03-03T12:02:01.956Z,1740.00
2018-03-03T12:03:01.952Z,1752.00
2018-03-03T12:04:01.943Z,1780.00
2018-03-03T12:05:02.077Z,1824.00
2018-03-03T12:06:01.953Z,1880.00
2018-03-03T12:07:01.991Z,1932.00
2018-03-03T12:08:01.949Z,1968.00
2018-03-03T12:09:02.008Z,1980.00
2018-03-03T12:10:01.936Z,1964.00
2018-03-03T12:11:01.939Z,1932.00
2018-03-03T12:12:02.024Z,1900.00
2018-03-03T12:13:01.930Z,1896.00
2018-03-03T12:14:01.933Z,1912.00
2018-03-03T12:15:02.047Z,1936.00
2018-03-03T12:16:01.923Z,1956.00
2018-03-03T12:17:01.931Z,1968.00
2018-03-03T12:18:02.099Z,1960.00
2018-03-03T12:19:01.917Z,1928.00
2018-03-03T12:20:01.975Z,1888.00
2018-03-03T12:21:01.926Z,1848.00
2018-03-03T12:22:02.063Z,1812.00
2018-03-03T12:23:01.914Z,1772.00
2018-03-03T12:24:01.966Z,1744.00
2018-03-03T12:25:01.917Z,1724.00
2018-03-03T12:26:01.918Z,1688.00
2018-03-03T12:27:02.092Z,1636.00
2018-03-03T12:28:01.928Z,1584.00
2018-03-03T12:29:01.909Z,1532.00
2018-03-03T12:30:02.014Z,1480.00
2018-03-03T12:31:01.914Z,1452.00
2018-03-03T12:32:02.032Z,1432.00
2018-03-03T12:33:01.902Z,1408.00
2018-03-03T12:34:01.902Z,1408.00
2018-03-03T12:35:01.942Z,1424.00
2018-03-03T12:36:01.899Z,1448.00
2018-03-03T12:37:01.945Z,1456.00
2018-03-03T12:38:01.962Z,1440.00
2018-03-03T12:39:01.892Z,1416.00
2018-03-03T12:40:01.979Z,1396.00
2018-03-03T12:41:01.890Z,1384.00
2018-03-03T12:42:01.989Z,1360.00